Time;durP1;ratioP1;P1;durP2;ratioP2;P2;SDS_P1;SDS_P2;PMS_P1;PMS_P2;Temp;Humidity;BMP_temperature;BMP_pressure;BME280_temperature;BME280_humidity;BME280_pressure;Samples;Min_cycle;Max_cycle;Signal;HPM_P1;HPM_P2
2023/10/11 00:00:39;;;;;;;19.27;6.70;;;;;;;10.72;100.00;99172.84;4990675;28;20475;-63
2023/10/11 00:03:14;;;;;;;18.38;6.18;;;;;;;10.73;100.00;99174.50;4993198;28;20022;-63
2023/10/11 00:05:42;;;;;;;27.63;6.85;;;;;;;10.67;100.00;99175.28;4998454;28;20022;-63
2023/10/11 00:08:13;;;;;;;15.52;7.13;;;;;;;10.59;100.00;99182.72;4991954;28;20463;-63
2023/10/11 00:10:47;;;;;;;19.40;7.30;;;;;;;10.60;100.00;99196.03;5004072;28;20030;-63
2023/10/11 00:13:15;;;;;;;22.05;7.55;;;;;;;10.58;100.00;99184.56;4992365;28;20054;-63
2023/10/11 00:15:52;;;;;;;25.83;7.47;;;;;;;10.59;100.00;99178.13;4989203;28;20034;-63
2023/10/11 00:18:30;;;;;;;20.00;6.57;;;;;;;10.43;100.00;99176.53;4988659;28;20022;-63
2023/10/11 00:20:59;;;;;;;19.33;7.00;;;;;;;10.37;100.00;99179.16;4989769;28;20088;-63
2023/10/11 00:23:26;;;;;;;15.25;5.88;;;;;;;10.36;100.00;99182.91;4989358;28;20114;-63
2023/10/11 00:26:00;;;;;;;17.55;6.90;;;;;;;10.33;100.00;99172.47;4992044;28;20022;-63
2023/10/11 00:28:26;;;;;;;18.10;6.30;;;;;;;10.34;100.00;99172.25;4991788;28;20022;-63
2023/10/11 00:30:57;;;;;;;17.88;6.07;;;;;;;10.36;100.00;99161.25;4991899;28;20034;-63
2023/10/11 00:33:23;;;;;;;18.88;5.82;;;;;;;10.38;100.00;99170.84;4990447;28;20444;-63
2023/10/11 00:35:50;;;;;;;19.02;5.45;;;;;;;10.41;100.00;99154.22;5007425;28;20482;-63
2023/10/11 00:38:20;;;;;;;15.68;5.60;;;;;;;10.49;100.00;99155.97;5001999;28;20030;-63
2023/10/11 00:41:12;;;;;;;21.55;6.63;;;;;;;10.39;100.00;99158.16;4989670;28;20064;-63
2023/10/11 00:43:46;;;;;;;14.45;5.85;;;;;;;10.42;100.00;99161.31;4991367;28;20050;-64
2023/10/11 00:49:08;;;;;;;16.77;6.47;;;;;;;10.46;100.00;99132.03;5094558;23;20045;-73
2023/10/11 00:51:36;;;;;;;16.90;6.57;;;;;;;10.56;100.00;99148.75;5038449;28;20037;-73
2023/10/11 00:54:03;;;;;;;14.13;6.30;;;;;;;10.54;100.00;99129.19;5044108;28;20025;-73
2023/10/11 00:56:31;;;;;;;18.63;6.82;;;;;;;10.68;100.00;99146.34;5042546;28;20060;-74
2023/10/11 00:58:58;;;;;;;13.98;5.65;;;;;;;10.61;100.00;99148.16;5018937;28;20025;-73
2023/10/11 01:01:23;;;;;;;20.80;7.18;;;;;;;10.53;100.00;99131.06;5023421;28;20049;-73
2023/10/11 01:03:49;;;;;;;16.00;6.45;;;;;;;10.71;100.00;99148.66;5011689;28;20030;-73
2023/10/11 01:06:15;;;;;;;17.02;6.15;;;;;;;10.65;100.00;99141.34;5022177;28;20022;-73
2023/10/11 01:08:41;;;;;;;19.33;5.72;;;;;;;10.67;100.00;99139.28;5020789;28;20037;-73
2023/10/11 01:11:14;;;;;;;14.98;6.25;;;;;;;10.71;100.00;99138.66;5027316;28;20030;-72
2023/10/11 01:13:42;;;;;;;17.38;6.50;;;;;;;10.78;100.00;99137.91;5035614;28;20326;-73
2023/10/11 01:16:11;;;;;;;14.38;5.80;;;;;;;10.85;100.00;99138.78;5018923;28;20026;-72
2023/10/11 01:18:40;;;;;;;18.17;6.90;;;;;;;10.78;100.00;99133.31;5025136;28;20030;-74
2023/10/11 01:21:07;;;;;;;17.58;6.50;;;;;;;10.81;100.00;99137.50;5022687;28;20231;-72
2023/10/11 01:23:34;;;;;;;17.40;6.88;;;;;;;10.79;100.00;99129.56;5016598;28;20026;-73
2023/10/11 01:26:09;;;;;;;12.68;6.10;;;;;;;10.66;100.00;99126.75;5030548;28;20082;-70
2023/10/11 01:28:44;;;;;;;16.77;6.85;;;;;;;10.60;100.00;99117.56;5032622;28;20022;-73
2023/10/11 01:31:10;;;;;;;20.83;6.28;;;;;;;10.59;100.00;99121.31;5021606;28;20329;-73
2023/10/11 01:33:41;;;;;;;15.30;6.03;;;;;;;10.63;100.00;99124.44;5019194;28;20045;-73
2023/10/11 01:36:07;;;;;;;22.45;6.22;;;;;;;10.49;100.00;99124.34;5024948;28;20323;-73
2023/10/11 01:38:48;;;;;;;13.18;6.03;;;;;;;10.27;100.00;99112.72;5021166;28;20072;-73
2023/10/11 01:41:15;;;;;;;14.15;5.93;;;;;;;10.33;100.00;99130.03;5022828;28;20045;-73
2023/10/11 01:43:41;;;;;;;19.45;6.88;;;;;;;10.19;100.00;99110.13;5006310;28;20292;-72
2023/10/11 01:46:07;;;;;;;14.27;5.68;;;;;;;10.13;100.00;99110.88;5015019;28;20025;-73
2023/10/11 01:48:32;;;;;;;12.77;5.25;;;;;;;10.17;100.00;99136.50;5024371;28;20033;-73
2023/10/11 01:51:03;;;;;;;13.45;5.38;;;;;;;10.05;100.00;99119.09;5021000;28;20030;-73
2023/10/11 01:53:29;;;;;;;15.95;5.28;;;;;;;10.06;100.00;99120.75;5020320;28;20033;-72
2023/10/11 01:55:55;;;;;;;15.65;6.18;;;;;;;10.02;100.00;99116.78;5024325;28;20100;-72
2023/10/11 01:58:20;;;;;;;21.58;6.30;;;;;;;10.08;100.00;99121.41;5020196;28;20026;-73
2023/10/11 02:00:48;;;;;;;16.92;6.30;;;;;;;10.17;100.00;99132.97;5011078;28;20045;-72
2023/10/11 02:03:14;;;;;;;18.60;6.20;;;;;;;9.99;100.00;99109.91;5019648;28;20100;-73
2023/10/11 02:05:39;;;;;;;15.13;6.40;;;;;;;9.97;100.00;99103.00;5038734;28;20025;-73
2023/10/11 02:08:12;;;;;;;17.80;6.53;;;;;;;10.06;100.00;99123.47;5022552;28;20032;-73
2023/10/11 02:10:38;;;;;;;15.30;6.43;;;;;;;9.95;100.00;99105.91;5011145;28;20018;-73
2023/10/11 02:13:05;;;;;;;20.98;6.30;;;;;;;10.06;100.00;99118.06;5016702;28;20095;-72
2023/10/11 02:15:30;;;;;;;15.82;5.43;;;;;;;10.03;100.00;99110.34;5019557;28;20116;-73
2023/10/11 02:17:57;;;;;;;14.70;5.65;;;;;;;10.13;100.00;99116.28;5027145;28;20021;-73
2023/10/11 02:20:22;;;;;;;12.40;5.82;;;;;;;10.12;100.00;99101.09;5019208;28;20342;-72
2023/10/11 02:22:51;;;;;;;16.95;5.97;;;;;;;10.10;100.00;99116.66;5016067;28;20030;-73
2023/10/11 02:25:21;;;;;;;21.90;6.78;;;;;;;10.12;100.00;99101.09;5019698;28;20051;-74
2023/10/11 02:27:49;;;;;;;19.15;5.90;;;;;;;10.14;100.00;99114.41;5015772;28;20357;-73
2023/10/11 02:30:21;;;;;;;18.05;6.10;;;;;;;10.11;100.00;99110.22;5021520;28;20025;-73
2023/10/11 02:32:47;;;;;;;17.73;6.30;;;;;;;10.04;100.00;99114.75;5015564;28;20100;-74
2023/10/11 02:35:13;;;;;;;21.73;6.28;;;;;;;9.93;100.00;99107.13;5015424;28;20048;-73
2023/10/11 02:37:45;;;;;;;15.75;5.85;;;;;;;9.91;100.00;99130.81;5018279;28;20319;-73
2023/10/11 02:40:22;;;;;;;12.02;5.18;;;;;;;9.84;100.00;99130.72;5014963;28;20022;-73
2023/10/11 02:42:55;;;;;;;15.43;6.00;;;;;;;9.75;100.00;99130.00;5017012;28;20033;-73
2023/10/11 02:45:22;;;;;;;16.52;5.95;;;;;;;9.65;100.00;99108.69;5027259;28;20053;-73
2023/10/11 02:47:59;;;;;;;11.85;5.35;;;;;;;9.66;100.00;99118.47;5022061;28;20093;-73
2023/10/11 02:50:25;;;;;;;16.90;5.57;;;;;;;9.66;100.00;99117.63;5026493;28;20027;-73
2023/10/11 02:52:58;;;;;;;18.63;5.65;;;;;;;9.53;100.00;99103.97;5022359;28;20045;-72
2023/10/11 02:55:24;;;;;;;16.48;6.53;;;;;;;9.57;100.00;99118.78;5020655;28;20028;-72
2023/10/11 02:58:05;;;;;;;18.30;5.82;;;;;;;9.52;100.00;99100.44;5020911;28;20081;-73
2023/10/11 03:00:32;;;;;;;16.58;6.10;;;;;;;9.53;100.00;99109.38;5018481;28;20022;-73
2023/10/11 03:02:57;;;;;;;13.63;6.10;;;;;;;9.44;100.00;99105.94;5017540;28;20026;-73
2023/10/11 03:05:27;;;;;;;15.50;6.07;;;;;;;9.51;100.00;99125.78;5016538;28;20090;-73
2023/10/11 03:08:16;;;;;;;14.70;5.60;;;;;;;9.53;100.00;99112.06;5014801;28;20105;-72
2023/10/11 03:10:53;;;;;;;16.90;6.63;;;;;;;9.52;100.00;99110.41;5017639;28;20204;-72
2023/10/11 03:13:24;;;;;;;17.17;5.75;;;;;;;9.32;100.00;99083.13;5011999;28;20072;-72
2023/10/11 03:15:54;;;;;;;28.23;6.65;;;;;;;9.47;100.00;99107.44;5023052;28;20071;-73
2023/10/11 03:18:36;;;;;;;16.65;6.38;;;;;;;9.40;100.00;99104.63;5022173;28;20064;-73
2023/10/11 03:21:16;;;;;;;15.45;5.90;;;;;;;9.36;100.00;99101.50;5020169;28;20022;-72
2023/10/11 03:23:43;;;;;;;17.45;5.47;;;;;;;9.41;100.00;99114.44;5010645;28;20030;-73
2023/10/11 03:26:22;;;;;;;20.17;5.90;;;;;;;9.38;100.00;99107.53;5020804;28;20259;-72
2023/10/11 03:28:57;;;;;;;;;;;;;;;9.41;100.00;99115.25;5019039;28;20084;-73
2023/10/11 03:31:28;;;;;;;20.58;6.43;;;;;;;9.38;100.00;99109.41;5020741;28;20109;-72
2023/10/11 03:34:10;;;;;;;15.20;6.03;;;;;;;9.41;100.00;99107.16;5010642;28;20101;-73
2023/10/11 03:36:43;;;;;;;21.05;6.00;;;;;;;9.21;100.00;99098.78;5036263;28;20100;-73
2023/10/11 03:39:14;;;;;;;17.25;5.85;;;;;;;9.32;100.00;99102.88;5015318;28;20036;-73
2023/10/11 03:41:45;;;;;;;16.33;6.28;;;;;;;9.30;100.00;99110.34;5017205;28;20231;-73
2023/10/11 03:44:20;;;;;;;17.30;6.18;;;;;;;9.22;100.00;99102.31;5012379;28;20032;-73
2023/10/11 03:46:47;;;;;;;13.95;6.20;;;;;;;9.21;100.00;99096.09;5022189;28;20101;-73
2023/10/11 03:51:48;;;;;;;16.67;6.32;;;;;;;9.12;100.00;99107.19;5021343;28;20092;-75
2023/10/11 03:54:22;;;;;;;14.75;5.45;;;;;;;9.04;100.00;99093.78;5021322;28;20064;-73
2023/10/11 03:56:55;;;;;;;19.65;6.63;;;;;;;9.04;100.00;99101.88;5015065;28;20105;-73
2023/10/11 03:59:24;;;;;;;13.32;5.53;;;;;;;8.93;100.00;99084.28;5021593;28;20018;-72
2023/10/11 04:01:49;;;;;;;12.65;6.15;;;;;;;8.96;100.00;99094.69;5021021;28;20327;-72
2023/10/11 04:04:16;;;;;;;16.50;5.35;;;;;;;8.94;100.00;99094.91;5018014;28;20042;-71
2023/10/11 04:06:41;;;;;;;16.25;6.10;;;;;;;8.92;100.00;99105.03;5026630;28;20022;-70
2023/10/11 04:09:21;;;;;;;12.10;5.93;;;;;;;8.86;100.00;99095.00;5027194;28;20052;-70
2023/10/11 04:11:54;;;;;;;13.57;5.70;;;;;;;8.78;100.00;99095.09;5021037;28;20051;-69
2023/10/11 04:14:24;;;;;;;13.45;6.15;;;;;;;8.84;100.00;99094.34;5007134;28;20084;-69
2023/10/11 04:16:53;;;;;;;14.52;5.68;;;;;;;8.71;100.00;99083.34;5022129;28;20323;-77
2023/10/11 04:19:21;;;;;;;18.40;5.78;;;;;;;8.68;100.00;99087.25;5018272;28;20093;-77
2023/10/11 04:24:13;;;;;;;18.10;6.47;;;;;;;8.61;100.00;99080.06;5023480;28;20284;-78
2023/10/11 04:26:39;;;;;;;14.65;6.57;;;;;;;8.67;100.00;99085.59;5026719;28;20196;-75
2023/10/11 04:29:16;;;;;;;16.10;7.40;;;;;;;8.55;100.00;99077.09;5025487;28;20049;-77
2023/10/11 04:32:09;;;;;;;17.00;7.00;;;;;;;8.61;100.00;99086.31;5013087;28;20026;-76
2023/10/11 04:34:38;;;;;;;13.77;6.50;;;;;;;8.64;100.00;99085.09;5025944;28;20591;-77
2023/10/11 04:37:16;;;;;;;13.18;6.07;;;;;;;8.62;100.00;99101.47;5018954;28;20026;-80
2023/10/11 04:39:50;;;;;;;16.15;6.40;;;;;;;8.64;100.00;99098.59;5026270;28;20254;-77
2023/10/11 04:42:19;;;;;;;15.10;6.38;;;;;;;8.61;100.00;99090.88;5026561;28;20018;-76
2023/10/11 04:44:47;;;;;;;15.80;6.38;;;;;;;8.57;100.00;99085.00;5024912;28;20034;-76
2023/10/11 04:47:16;;;;;;;16.08;6.13;;;;;;;8.60;100.00;99114.31;5008311;28;20246;-76
2023/10/11 04:49:44;;;;;;;17.63;5.90;;;;;;;8.58;100.00;99099.31;5022595;28;20072;-78
2023/10/11 04:52:22;;;;;;;17.73;6.45;;;;;;;8.73;100.00;99110.97;5021341;28;20018;-78
2023/10/11 04:54:55;;;;;;;17.65;6.45;;;;;;;8.67;100.00;99085.59;5021543;28;20024;-79
2023/10/11 04:57:33;;;;;;;12.90;5.82;;;;;;;8.73;100.00;99108.28;5018808;28;20381;-80
2023/10/11 05:00:00;;;;;;;12.80;5.73;;;;;;;8.75;100.00;99096.28;5026231;28;20030;-78
2023/10/11 05:02:32;;;;;;;19.33;6.60;;;;;;;8.77;100.00;99106.88;5027488;28;20238;-77
2023/10/11 05:05:01;;;;;;;17.58;6.28;;;;;;;8.73;100.00;99105.59;5026345;28;20341;-75
2023/10/11 05:07:28;;;;;;;18.42;6.22;;;;;;;8.69;100.00;99105.09;5022532;28;20049;-75
2023/10/11 05:09:59;;;;;;;14.55;6.35;;;;;;;8.56;100.00;99094.09;5059728;28;20100;-76
2023/10/11 05:12:26;;;;;;;17.98;6.88;;;;;;;8.66;100.00;99127.03;5028886;28;20063;-81
2023/10/11 05:20:08;;;;;;;15.40;6.25;;;;;;;8.63;100.00;99115.78;5014218;28;20037;-76
2023/10/11 05:27:58;;;;;;;16.73;7.22;;;;;;;8.42;100.00;99095.75;5035970;28;20028;-81
2023/10/11 05:52:03;;;;;;;13.55;6.15;;;;;;;8.46;100.00;99112.41;5017477;28;20130;-79
2023/10/11 05:54:35;;;;;;;14.88;6.45;;;;;;;8.62;100.00;99127.59;5020527;28;20025;-83
2023/10/11 05:57:04;;;;;;;17.42;6.43;;;;;;;8.81;100.00;99116.28;5020487;28;20118;-74
2023/10/11 05:59:38;;;;;;;14.40;6.03;;;;;;;8.91;100.00;99107.94;5012284;28;20362;-75
2023/10/11 06:02:13;;;;;;;17.90;7.00;;;;;;;9.09;100.00;99121.03;5025613;28;20064;-76
2023/10/11 06:04:39;;;;;;;14.73;6.07;;;;;;;9.13;100.00;99100.75;5017209;28;20114;-76
2023/10/11 06:07:13;;;;;;;20.20;7.05;;;;;;;9.25;100.00;99114.59;5021238;28;20057;-75
2023/10/11 06:09:43;;;;;;;13.57;6.07;;;;;;;9.27;100.00;99094.50;5028958;28;20022;-79
2023/10/11 06:12:58;;;;;;;21.85;6.93;;;;;;;9.48;100.00;99098.28;5028446;28;20026;-77
2023/10/11 06:15:59;;;;;;;19.42;6.07;;;;;;;10.31;100.00;99099.63;5022225;28;20026;-76
2023/10/11 06:18:35;;;;;;;17.52;5.60;;;;;;;12.03;100.00;99072.66;5029665;28;20255;-78
2023/10/11 06:21:18;;;;;;;18.90;5.68;;;;;;;13.72;100.00;99043.94;5045837;28;20087;-72
2023/10/11 06:23:44;;;;;;;17.92;5.18;;;;;;;15.20;100.00;99044.41;5027352;28;20092;-72
2023/10/11 06:29:02;;;;;;;17.63;5.72;;;;;;;17.02;100.00;99034.94;5005759;28;20122;-73
2023/10/11 06:31:33;;;;;;;21.10;5.70;;;;;;;17.80;100.00;99043.69;5023749;28;20024;-72
2023/10/11 06:34:01;;;;;;;13.80;5.90;;;;;;;18.11;100.00;99037.69;5024691;28;20018;-72
2023/10/11 06:36:29;;;;;;;16.83;5.70;;;;;;;18.22;100.00;99022.28;5013221;28;20038;-72
2023/10/11 06:38:55;;;;;;;17.20;6.38;;;;;;;18.79;100.00;99044.03;5020084;28;20033;-72
2023/10/11 06:41:45;;;;;;;17.33;5.03;;;;;;;20.09;100.00;99048.16;5017598;28;20030;-71
2023/10/11 06:44:10;;;;;;;15.43;5.68;;;;;;;20.43;100.00;99050.66;5008999;28;20307;-71
2023/10/11 06:46:37;;;;;;;16.98;5.70;;;;;;;20.87;96.14;99037.56;5010526;28;20049;-75
2023/10/11 06:49:04;;;;;;;15.20;6.18;;;;;;;20.49;90.58;99053.19;5027602;28;20089;-78
2023/10/11 06:51:42;;;;;;;12.50;5.80;;;;;;;21.11;87.80;99048.97;5019709;28;20022;-75
2023/10/11 06:54:08;;;;;;;19.17;6.47;;;;;;;21.28;85.07;99035.03;5015741;28;20022;-77
2023/10/11 06:57:20;;;;;;;19.65;6.38;;;;;;;22.41;75.49;99051.94;5017532;28;20030;-79
2023/10/11 07:00:24;;;;;;;18.58;6.75;;;;;;;23.33;71.00;99052.66;5033744;28;20042;-78
2023/10/11 07:03:07;;;;;;;16.50;6.35;;;;;;;22.19;72.96;99054.94;5032330;28;20034;-76
2023/10/11 07:05:45;;;;;;;17.00;5.90;;;;;;;23.47;66.34;99035.50;5023932;28;20030;-76
2023/10/11 07:08:18;;;;;;;20.70;5.80;;;;;;;23.72;64.67;99060.28;5029899;28;20048;-78
2023/10/11 07:10:57;;;;;;;19.40;6.20;;;;;;;24.61;63.31;99043.69;5022374;28;20045;-78
2023/10/11 07:13:23;;;;;;;20.73;7.60;;;;;;;24.84;61.45;99047.63;5030160;28;20013;-79
2023/10/11 07:15:50;;;;;;;18.45;6.90;;;;;;;24.88;60.91;99037.59;5018615;28;20022;-76
2023/10/11 07:18:25;;;;;;;12.68;6.22;;;;;;;24.76;59.64;99050.19;5014887;28;20323;-80
2023/10/11 07:20:58;;;;;;;21.35;6.68;;;;;;;24.44;61.74;99046.00;5016271;28;20030;-78
2023/10/11 07:23:35;;;;;;;14.10;6.18;;;;;;;26.08;56.99;99047.84;5028584;28;20049;-80
2023/10/11 07:28:52;;;;;;;18.90;7.10;;;;;;;27.50;53.57;99048.47;5024385;28;20031;-71
2023/10/11 07:31:31;;;;;;;17.02;6.05;;;;;;;27.12;54.09;99056.97;5024476;28;20021;-79
2023/10/11 07:34:05;;;;;;;12.38;6.38;;;;;;;27.57;51.83;99048.09;5018183;28;20022;-78
2023/10/11 07:36:31;;;;;;;14.98;5.70;;;;;;;27.95;50.85;99051.44;5010297;28;20026;-74
2023/10/11 07:39:00;;;;;;;16.17;6.43;;;;;;;28.70;49.36;99063.06;5015410;28;20030;-74
2023/10/11 07:41:28;;;;;;;13.55;5.50;;;;;;;30.28;48.01;99047.47;5018954;28;20033;-79
2023/10/11 07:43:57;;;;;;;13.10;5.65;;;;;;;30.33;46.21;99061.25;5023625;28;20192;-75
2023/10/11 07:46:23;;;;;;;13.93;5.25;;;;;;;30.55;45.69;99062.25;5017362;28;20110;-72
2023/10/11 07:48:48;;;;;;;15.77;5.72;;;;;;;30.89;45.50;99054.97;5022607;28;20029;-74
2023/10/11 07:51:14;;;;;;;9.73;4.90;;;;;;;32.07;43.94;99055.16;5013937;28;20041;-78
2023/10/11 07:53:41;;;;;;;10.85;4.97;;;;;;;31.04;44.63;99056.44;5022126;28;20022;-75
2023/10/11 07:56:07;;;;;;;16.55;5.40;;;;;;;32.46;43.57;99046.59;5014090;28;20101;-73
2023/10/11 07:58:33;;;;;;;9.73;4.95;;;;;;;32.78;42.56;99059.03;5021746;28;20033;-75
2023/10/11 08:01:05;;;;;;;13.90;5.38;;;;;;;32.74;41.97;99052.47;5020489;28;20097;-80
2023/10/11 08:03:34;;;;;;;14.43;5.40;;;;;;;33.06;41.66;99041.59;5025758;28;20098;-82
2023/10/11 08:06:05;;;;;;;9.38;4.85;;;;;;;34.55;40.50;99043.94;5027456;28;20100;-79
2023/10/11 08:08:31;;;;;;;12.70;4.80;;;;;;;33.64;40.82;99050.78;5018209;28;20026;-73
2023/10/11 08:10:56;;;;;;;15.57;4.78;;;;;;;33.69;40.72;99069.38;5021777;28;20032;-73
2023/10/11 08:13:26;;;;;;;10.02;4.55;;;;;;;35.11;39.86;99049.56;5024696;28;20018;-82
2023/10/11 08:15:58;;;;;;;12.30;4.63;;;;;;;33.43;41.03;99061.25;5014900;28;20030;-77
2023/10/11 08:18:26;;;;;;;14.80;3.92;;;;;;;34.61;39.47;99053.78;5022570;28;20330;-79
2023/10/11 08:20:51;;;;;;;10.90;4.70;;;;;;;34.80;39.58;99050.31;5031970;28;20090;-77
2023/10/11 08:23:28;;;;;;;11.27;4.38;;;;;;;34.13;39.96;99044.31;5037685;28;20406;-79
2023/10/11 08:25:57;;;;;;;19.80;4.90;;;;;;;34.54;39.16;99037.50;5020881;28;20022;-75
2023/10/11 08:28:34;;;;;;;13.52;4.30;;;;;;;34.07;39.47;99048.56;5019905;28;20021;-75
2023/10/11 08:30:59;;;;;;;11.52;4.63;;;;;;;34.68;38.60;99051.97;5017810;28;20033;-77
2023/10/11 08:33:25;;;;;;;12.07;4.20;;;;;;;34.77;37.76;99045.38;5022184;28;20025;-78
2023/10/11 08:35:53;;;;;;;15.43;4.07;;;;;;;35.47;37.72;99037.22;5029905;28;20288;-82
2023/10/11 08:38:19;;;;;;;16.23;4.47;;;;;;;36.10;36.46;99038.31;5026407;28;20197;-69
2023/10/11 08:40:49;;;;;;;12.48;4.78;;;;;;;37.02;34.92;99036.63;5029107;28;20037;-77
2023/10/11 08:43:16;;;;;;;11.10;4.15;;;;;;;35.86;35.29;99034.53;5031083;28;20032;-78
2023/10/11 08:45:59;;;;;;;12.05;4.00;;;;;;;36.58;35.05;99033.34;5021470;28;20067;-78
2023/10/11 08:48:25;;;;;;;13.18;3.53;;;;;;;36.56;34.63;99021.63;5023603;28;20033;-79
2023/10/11 08:50:54;;;;;;;12.48;3.60;;;;;;;36.39;34.28;99026.50;5022125;28;20018;-75
2023/10/11 08:53:21;;;;;;;10.07;3.70;;;;;;;35.20;33.98;99029.69;5019009;28;20243;-69
2023/10/11 08:55:51;;;;;;;8.50;3.28;;;;;;;36.29;32.99;99021.47;5021463;28;20025;-80
2023/10/11 08:58:27;;;;;;;13.38;3.55;;;;;;;36.03;33.31;99033.34;5028234;28;20014;-75
2023/10/11 09:00:55;;;;;;;11.35;3.50;;;;;;;35.75;33.93;99027.88;5016883;28;20039;-78
2023/10/11 09:03:26;;;;;;;20.27;4.17;;;;;;;36.78;32.98;99028.47;5013579;28;20022;-71
2023/10/11 09:06:10;;;;;;;15.38;3.33;;;;;;;36.13;33.25;99026.31;5024746;28;20042;-74
2023/10/11 09:08:36;;;;;;;12.32;3.42;;;;;;;36.49;32.42;99019.44;5019306;28;20141;-72
2023/10/11 09:11:14;;;;;;;10.73;3.50;;;;;;;36.31;33.16;99033.16;5021885;28;20022;-74
2023/10/11 09:13:40;;;;;;;13.23;3.45;;;;;;;36.08;33.01;99026.59;5025052;28;20033;-79
2023/10/11 09:16:12;;;;;;;17.75;3.78;;;;;;;36.03;33.03;99038.97;5026674;28;20072;-77
2023/10/11 09:18:46;;;;;;;13.27;3.50;;;;;;;37.06;31.84;99033.88;5014536;28;20021;-78
2023/10/11 09:21:15;;;;;;;15.25;3.72;;;;;;;36.41;32.99;99028.94;5027601;28;20040;-71
2023/10/11 09:23:47;;;;;;;7.03;2.92;;;;;;;39.10;32.02;99030.34;5009216;28;20132;-74
2023/10/11 09:26:32;;;;;;;9.95;3.15;;;;;;;39.69;30.76;99038.94;5010519;28;20022;-74
2023/10/11 09:29:03;;;;;;;10.35;3.22;;;;;;;39.07;30.44;99039.63;5028234;28;20034;-74
2023/10/11 09:31:31;;;;;;;9.77;3.47;;;;;;;38.73;30.60;99025.50;5025290;28;20029;-74
2023/10/11 09:34:00;;;;;;;11.95;3.67;;;;;;;37.78;31.40;99037.91;5022857;28;20018;-73
2023/10/11 09:36:28;;;;;;;13.68;4.05;;;;;;;36.53;32.52;99027.97;5022809;28;20029;-72
2023/10/11 09:38:57;;;;;;;9.68;3.25;;;;;;;35.93;33.01;99034.72;5019544;28;20211;-71
2023/10/11 09:41:40;;;;;;;18.35;3.85;;;;;;;35.97;33.25;99017.91;5032606;28;20036;-71
2023/10/11 09:44:07;;;;;;;12.77;3.70;;;;;;;35.06;34.60;99030.94;5008319;28;20042;-71
2023/10/11 09:46:34;;;;;;;9.57;3.42;;;;;;;35.98;33.54;99028.00;5034687;28;20038;-71
2023/10/11 09:49:01;;;;;;;14.40;4.00;;;;;;;36.28;33.04;99022.63;5020457;28;20052;-71
2023/10/11 09:51:27;;;;;;;8.48;3.60;;;;;;;36.53;32.52;99027.97;5026940;28;20030;-71
2023/10/11 09:53:53;;;;;;;13.23;3.70;;;;;;;36.76;32.93;99022.41;5023480;28;20026;-71
2023/10/11 09:57:08;;;;;;;10.30;3.55;;;;;;;36.89;32.82;99023.03;5023476;28;20093;-70
2023/10/11 10:00:08;;;;;;;17.73;4.18;;;;;;;37.12;32.65;99018.25;4987998;28;20075;-70
2023/10/11 10:02:38;;;;;;;11.68;3.95;;;;;;;36.46;32.86;99022.19;5023896;28;20388;-70
2023/10/11 10:05:05;;;;;;;12.35;3.90;;;;;;;36.74;32.41;99016.34;5009643;28;20041;-70
2023/10/11 10:07:44;;;;;;;14.43;3.47;;;;;;;37.29;31.97;99028.25;5031567;28;20029;-70
2023/10/11 10:10:15;;;;;;;11.77;3.58;;;;;;;37.01;31.88;99029.31;5016918;28;20097;-71
2023/10/11 10:13:00;;;;;;;10.55;4.15;;;;;;;39.31;30.19;99024.88;5023047;28;20255;-71
2023/10/11 10:15:34;;;;;;;12.02;3.65;;;;;;;39.64;30.01;99018.28;5011438;28;20042;-70
2023/10/11 10:18:03;;;;;;;10.85;3.45;;;;;;;38.92;30.91;99018.84;5016304;28;20025;-70
2023/10/11 10:20:28;;;;;;;;;;;;;;;40.32;29.43;99023.56;5027082;28;20362;-71
2023/10/11 10:23:22;;;;;;;9.25;3.42;;;;;;;40.38;29.44;99024.00;5025392;28;19909;-72
2023/10/11 10:26:21;;;;;;;8.13;3.10;;;;;;;39.28;30.08;99020.00;5012934;28;20041;-68
2023/10/11 10:28:50;;;;;;;9.98;3.00;;;;;;;41.29;29.12;99018.97;5001523;28;20029;-68
2023/10/11 10:31:21;;;;;;;14.93;3.55;;;;;;;41.58;28.21;99019.81;5020430;28;20307;-70
2023/10/11 10:34:04;;;;;;;11.23;3.42;;;;;;;40.07;29.45;99020.59;5023102;28;20053;-70
2023/10/11 10:36:31;;;;;;;7.82;3.42;;;;;;;39.96;29.86;99019.72;5020112;28;20274;-70
2023/10/11 10:41:40;;;;;;;12.00;3.67;;;;;;;41.60;28.62;99010.88;5031024;28;20097;-70
2023/10/11 10:44:10;;;;;;;6.47;3.13;;;;;;;41.52;28.08;99004.38;5007954;28;20022;-70
2023/10/11 10:46:45;;;;;;;17.33;3.65;;;;;;;42.31;27.47;99006.22;5026945;28;20032;-70
2023/10/11 10:49:11;;;;;;;10.02;3.53;;;;;;;41.54;28.50;98998.31;5023711;28;20316;-70
2023/10/11 10:51:36;;;;;;;9.95;3.38;;;;;;;40.74;29.05;98990.91;5023288;28;20057;-70
2023/10/11 10:54:13;;;;;;;11.27;3.10;;;;;;;41.41;27.82;98992.19;5020458;28;20017;-70
2023/10/11 10:56:39;;;;;;;15.30;3.45;;;;;;;42.50;27.31;98979.34;5022515;28;20028;-70
2023/10/11 10:59:12;;;;;;;12.15;3.58;;;;;;;41.88;27.33;98990.13;5011339;28;20030;-69
2023/10/11 11:01:38;;;;;;;7.45;3.22;;;;;;;43.12;27.08;98976.50;5036063;28;20044;-72
2023/10/11 11:04:07;;;;;;;12.27;3.25;;;;;;;43.47;27.17;98973.78;5016115;28;20030;-70
2023/10/11 11:06:40;;;;;;;12.70;3.20;;;;;;;43.52;26.32;98970.47;5025418;28;20033;-71
2023/10/11 11:09:14;;;;;;;8.55;2.80;;;;;;;42.58;26.47;98963.88;5044279;28;20310;-71
2023/10/11 11:11:43;;;;;;;7.68;3.20;;;;;;;43.56;26.40;98965.56;5016872;28;20029;-68
2023/10/11 11:14:13;;;;;;;10.27;3.05;;;;;;;45.38;25.52;98955.78;5023646;28;20025;-68
2023/10/11 11:16:44;;;;;;;14.73;3.65;;;;;;;44.95;26.07;98953.66;5019430;28;20096;-68
2023/10/11 11:19:16;;;;;;;6.72;3.17;;;;;;;46.55;24.81;98957.56;5032892;28;20037;-67
2023/10/11 11:21:44;;;;;;;11.15;3.28;;;;;;;45.06;24.93;98955.06;5012061;28;20346;-68
2023/10/11 11:24:18;;;;;;;9.38;3.08;;;;;;;46.46;25.21;98948.78;5027304;28;20206;-69
2023/10/11 11:26:44;;;;;;;9.57;2.67;;;;;;;45.96;24.25;98955.53;5022141;28;20331;-68
2023/10/11 11:29:16;;;;;;;12.35;3.20;;;;;;;45.79;24.65;98951.78;5012047;28;20077;-71
2023/10/11 11:31:52;;;;;;;7.85;2.75;;;;;;;44.47;25.42;98949.88;5019973;28;20084;-71
2023/10/11 11:34:27;;;;;;;9.88;2.85;;;;;;;44.72;25.20;98942.97;5029701;28;20319;-73
2023/10/11 11:37:20;;;;;;;8.55;2.97;;;;;;;41.45;27.14;98933.38;5023826;28;20030;-73
2023/10/11 11:39:52;;;;;;;8.23;3.13;;;;;;;41.04;28.56;98935.81;5024649;28;20022;-69
2023/10/11 11:42:20;;;;;;;10.25;2.70;;;;;;;42.25;27.49;98926.22;5016469;28;20060;-70
2023/10/11 11:44:46;;;;;;;11.07;3.00;;;;;;;41.20;27.95;98918.41;5030724;28;20026;-75
2023/10/11 11:47:11;;;;;;;8.52;3.00;;;;;;;41.55;27.68;98909.81;5009643;28;20026;-67
2023/10/11 11:49:36;;;;;;;11.47;2.60;;;;;;;40.67;28.47;98915.13;5049291;23;20038;-71
2023/10/11 11:52:02;;;;;;;9.40;3.27;;;;;;;39.75;29.15;98915.53;5029620;28;20034;-71
2023/10/11 11:54:28;;;;;;;9.85;3.05;;;;;;;40.20;28.70;98899.97;5028813;28;20279;-71
2023/10/11 11:56:54;;;;;;;7.30;2.70;;;;;;;41.45;27.77;98904.16;5030496;28;20275;-72
2023/10/11 11:59:21;;;;;;;11.50;2.88;;;;;;;40.54;28.55;98896.84;5026867;28;20053;-76
2023/10/11 12:01:49;;;;;;;12.73;2.83;;;;;;;39.28;29.02;98888.97;5016998;28;20022;-74
2023/10/11 12:04:19;;;;;;;;;;;;;;;39.03;29.92;98894.44;5018107;28;20049;-73
2023/10/11 12:06:46;;;;;;;7.45;2.45;;;;;;;38.30;30.61;98903.41;5013264;28;19984;-74
2023/10/11 12:09:20;;;;;;;11.93;2.90;;;;;;;40.04;29.27;98897.50;5017504;28;20035;-74
2023/10/11 12:11:49;;;;;;;10.55;2.70;;;;;;;40.96;28.42;98898.13;5013408;28;20033;-74
2023/10/11 12:14:15;;;;;;;8.95;2.60;;;;;;;41.46;27.45;98889.53;5021082;28;20084;-74
2023/10/11 12:16:43;;;;;;;9.20;2.90;;;;;;;38.87;29.21;98884.19;5026646;28;20022;-74
2023/10/11 12:19:13;;;;;;;8.50;3.10;;;;;;;38.39;29.61;98889.78;5015620;28;20022;-74
2023/10/11 12:21:39;;;;;;;8.45;2.58;;;;;;;39.00;29.52;98870.59;5021982;28;20082;-73
2023/10/11 12:24:10;;;;;;;10.48;2.97;;;;;;;37.37;30.52;98880.41;5012998;28;20243;-73
2023/10/11 12:26:40;;;;;;;13.15;3.15;;;;;;;39.15;30.05;98868.69;5013402;28;20142;-74
2023/10/11 12:29:12;;;;;;;8.65;2.85;;;;;;;39.42;29.06;98872.91;5022540;28;20026;-74
2023/10/11 12:31:38;;;;;;;5.47;2.35;;;;;;;40.01;28.59;98878.47;5011309;28;20036;-74